Aeroporto :
LOGIN :

Iscrizione | Disclaimer

   EN    FR    IT 

 










Sommario :    VFR   VFR Marginale   IFR   IFR Intensivo   IFR Molto Intensivo
Visibilità : 
Base nubi : 
>= 8 km
>= 3000ft
5 / 8 km
1000 / 3000 ft
1500m / 5 km
500 / 1000 ft
800 / 1500m
200 / 500 ft
< 800m
< 200 ft
Simboli :   Temporali  Nebbia  Neve Forte  Precipitazioni Forti  Vento > 20 kt
SIGMETs :   Varie  Temporali  Ghiacco  Turbolenza  Onda orograficha  Ceneri Vulcaniche






- Altitudine del aeroporto : 11 ft
- Codice IATA : PVK


LGPZ - Aktion Lefkada Preveza

ULTIMO METAR :
  • 031950Z 05007KT 9000 -RA FEW020 BKN070 13/11 Q1010

METARs OBSOLETI :
  • 031850Z 04012KT 9000 -RA FEW020 BKN070 13/10 Q1009
  • 031750Z 04012KT 9000 -RA FEW020 BKN070 12/11 Q1009

TAF TAF LGPZ
Valido dal 03 a 18 ore il 04 a 18 ore UTC


031700Z 0318/0418 06013KT 9999 SCT020 BKN070
PROB40
TEMPO 0318/0418 5000 RA SCT015 BKN030
PROB30
TEMPO 0318/0415 3000 TSRA SCT010 BKN025



MetMap, La meteo Aeronautica in un colpo d'occhio ! - Copyright ORBIFLY Dicembre 2007 - Disclaimer

ORBIFLY MET'MAP TEAM :

Programmazione e sviluppo : Alexandra Zaïnal
Concezione : Baudouin d'Aumeries
Aiuto per la programmazione : Marc-Olivier Méhu
Supporto tecnico e logistico : Manuel Goepfert
Aiuto per la traduzione : Arnaldo La Scala

Contatto : metmap@orbifly.com




FONTI E CREDITI :

   NOAA